sensor_id;sensor_type;location;lat;lon;timestamp;pressure;altitude;pressure_sealevel;temperature;humidity
57086;BME280;42964;42.910;23.792;2023-04-05T00:02:16;97231.03;;;4.29;90.21
57086;BME280;42964;42.910;23.792;2023-04-05T00:07:16;97227.56;;;4.25;90.74
57086;BME280;42964;42.910;23.792;2023-04-05T00:12:16;97222.50;;;4.30;90.70
57086;BME280;42964;42.910;23.792;2023-04-05T00:17:16;97167.44;;;4.11;90.66
57086;BME280;42964;42.910;23.792;2023-04-05T00:22:15;97204.47;;;4.28;90.22
57086;BME280;42964;42.910;23.792;2023-04-05T00:27:17;97218.25;;;4.34;90.15
57086;BME280;42964;42.910;23.792;2023-04-05T00:32:16;96849.69;;;2.07;89.89
57086;BME280;42964;42.910;23.792;2023-04-05T00:37:17;97214.00;;;4.36;90.03
57086;BME280;42964;42.910;23.792;2023-04-05T00:42:17;97215.75;;;4.38;90.22
57086;BME280;42964;42.910;23.792;2023-04-05T00:47:16;97221.72;;;4.36;90.06
57086;BME280;42964;42.910;23.792;2023-04-05T00:52:16;97213.25;;;4.43;89.90
57086;BME280;42964;42.910;23.792;2023-04-05T00:57:17;97212.44;;;4.45;89.75
57086;BME280;42964;42.910;23.792;2023-04-05T01:02:30;97210.66;;;4.40;88.96
57086;BME280;42964;42.910;23.792;2023-04-05T01:12:38;97215.88;;;4.46;88.39
57086;BME280;42964;42.910;23.792;2023-04-05T01:17:37;97211.56;;;4.45;87.08
57086;BME280;42964;42.910;23.792;2023-04-05T01:38:39;97149.78;;;3.76;86.93
57086;BME280;42964;42.910;23.792;2023-04-05T01:43:41;97071.63;;;3.04;87.23
57086;BME280;42964;42.910;23.792;2023-04-05T01:48:40;97212.50;;;3.94;88.33
57086;BME280;42964;42.910;23.792;2023-04-05T01:53:39;97220.66;;;3.70;88.06
57086;BME280;42964;42.910;23.792;2023-04-05T01:58:38;97212.38;;;3.36;88.58
57086;BME280;42964;42.910;23.792;2023-04-05T02:03:37;97224.72;;;3.11;90.04
57086;BME280;42964;42.910;23.792;2023-04-05T02:08:36;97217.25;;;3.23;89.93
57086;BME280;42964;42.910;23.792;2023-04-05T02:13:35;97222.75;;;3.43;91.71
57086;BME280;42964;42.910;23.792;2023-04-05T02:18:35;97218.00;;;3.65;90.86
57086;BME280;42964;42.910;23.792;2023-04-05T02:23:36;97224.06;;;3.70;89.12
57086;BME280;42964;42.910;23.792;2023-04-05T02:28:35;97213.09;;;3.77;88.95
57086;BME280;42964;42.910;23.792;2023-04-05T02:33:34;97219.25;;;3.87;89.36
57086;BME280;42964;42.910;23.792;2023-04-05T02:38:34;97210.03;;;4.00;90.54
57086;BME280;42964;42.910;23.792;2023-04-05T02:43:32;97207.66;;;4.12;89.16
57086;BME280;42964;42.910;23.792;2023-04-05T02:48:32;97205.22;;;4.21;89.12
57086;BME280;42964;42.910;23.792;2023-04-05T02:53:31;97217.28;;;4.25;89.46
57086;BME280;42964;42.910;23.792;2023-04-05T02:58:30;97181.94;;;4.09;89.00
57086;BME280;42964;42.910;23.792;2023-04-05T03:03:30;97208.78;;;4.29;88.04
57086;BME280;42964;42.910;23.792;2023-04-05T03:08:29;97213.91;;;4.28;87.82
57086;BME280;42964;42.910;23.792;2023-04-05T03:13:30;97202.44;;;4.06;85.09
57086;BME280;42964;42.910;23.792;2023-04-05T03:18:29;97222.75;;;3.94;85.97
57086;BME280;42964;42.910;23.792;2023-04-05T03:23:30;97210.66;;;3.86;85.79
57086;BME280;42964;42.910;23.792;2023-04-05T03:28:30;97208.03;;;3.82;87.49
57086;BME280;42964;42.910;23.792;2023-04-05T03:33:30;97205.47;;;3.82;88.55
57086;BME280;42964;42.910;23.792;2023-04-05T03:38:29;97215.66;;;3.77;88.14
57086;BME280;42964;42.910;23.792;2023-04-05T03:43:29;97210.56;;;3.79;88.48
57086;BME280;42964;42.910;23.792;2023-04-05T03:48:28;97213.94;;;3.76;88.40
57086;BME280;42964;42.910;23.792;2023-04-05T03:53:27;97236.09;;;3.71;88.50
57086;BME280;42964;42.910;23.792;2023-04-05T03:58:27;97222.00;;;3.48;90.75
57086;BME280;42964;42.910;23.792;2023-04-05T04:03:26;97226.28;;;3.49;91.36
57086;BME280;42964;42.910;23.792;2023-04-05T04:08:28;97225.75;;;3.68;92.33
57086;BME280;42964;42.910;23.792;2023-04-05T04:13:27;97233.81;;;3.88;92.32
57086;BME280;42964;42.910;23.792;2023-04-05T04:18:26;97233.19;;;4.03;90.74
57086;BME280;42964;42.910;23.792;2023-04-05T04:23:25;97229.88;;;4.10;91.27
57086;BME280;42964;42.910;23.792;2023-04-05T04:28:25;97222.91;;;4.03;90.04
57086;BME280;42964;42.910;23.792;2023-04-05T04:33:25;97243.69;;;4.15;90.07
57086;BME280;42964;42.910;23.792;2023-04-05T04:38:24;97231.78;;;4.20;90.58
57086;BME280;42964;42.910;23.792;2023-04-05T04:43:24;97205.84;;;4.05;89.39
57086;BME280;42964;42.910;23.792;2023-04-05T04:48:25;97238.00;;;4.36;89.47
57086;BME280;42964;42.910;23.792;2023-04-05T04:53:24;97235.50;;;4.41;90.45
57086;BME280;42964;42.910;23.792;2023-04-05T04:58:23;97245.91;;;4.50;89.77
57086;BME280;42964;42.910;23.792;2023-04-05T05:03:22;97243.47;;;4.58;89.67
57086;BME280;42964;42.910;23.792;2023-04-05T05:08:21;97246.25;;;4.75;89.47
57086;BME280;42964;42.910;23.792;2023-04-05T05:13:21;97249.91;;;4.92;89.30
57086;BME280;42964;42.910;23.792;2023-04-05T05:18:19;97245.91;;;5.12;89.14
57086;BME280;42964;42.910;23.792;2023-04-05T05:23:18;97243.53;;;5.29;88.69
57086;BME280;42964;42.910;23.792;2023-04-05T05:28:18;97256.56;;;5.42;88.09
57086;BME280;42964;42.910;23.792;2023-04-05T05:33:17;97248.81;;;5.40;86.12
57086;BME280;42964;42.910;23.792;2023-04-05T05:38:17;97254.09;;;5.52;87.10
57086;BME280;42964;42.910;23.792;2023-04-05T05:43:16;97246.28;;;5.45;81.71
57086;BME280;42964;42.910;23.792;2023-04-05T05:48:15;97247.03;;;5.33;81.47
57086;BME280;42964;42.910;23.792;2023-04-05T05:53:14;97228.78;;;5.11;83.11
57086;BME280;42964;42.910;23.792;2023-04-05T05:58:14;97253.81;;;5.29;83.04
57086;BME280;42964;42.910;23.792;2023-04-05T06:03:13;97248.91;;;5.48;84.03
57086;BME280;42964;42.910;23.792;2023-04-05T06:08:12;97251.59;;;5.60;84.17
57086;BME280;42964;42.910;23.792;2023-04-05T06:13:11;97249.16;;;5.74;84.24
57086;BME280;42964;42.910;23.792;2023-04-05T06:18:10;97256.34;;;6.07;85.35
57086;BME280;42964;42.910;23.792;2023-04-05T06:23:10;97236.59;;;6.08;79.30
57086;BME280;42964;42.910;23.792;2023-04-05T06:28:09;97253.94;;;6.27;81.54
57086;BME280;42964;42.910;23.792;2023-04-05T06:33:08;97254.88;;;6.35;77.43
57086;BME280;42964;42.910;23.792;2023-04-05T06:38:06;97269.38;;;6.26;76.93
57086;BME280;42964;42.910;23.792;2023-04-05T06:43:05;97270.41;;;6.48;76.93
57086;BME280;42964;42.910;23.792;2023-04-05T06:48:06;97269.66;;;6.61;78.36
57086;BME280;42964;42.910;23.792;2023-04-05T06:53:05;97267.88;;;6.52;75.18
57086;BME280;42964;42.910;23.792;2023-04-05T06:58:05;97280.44;;;6.14;75.24
57086;BME280;42964;42.910;23.792;2023-04-05T07:03:04;97280.56;;;6.28;75.89
57086;BME280;42964;42.910;23.792;2023-04-05T07:08:04;97294.59;;;6.67;76.04
57086;BME280;42964;42.910;23.792;2023-04-05T07:13:03;97296.47;;;6.88;73.80
57086;BME280;42964;42.910;23.792;2023-04-05T07:18:02;97295.72;;;7.12;73.25
57086;BME280;42964;42.910;23.792;2023-04-05T07:23:01;97300.16;;;7.37;73.99
57086;BME280;42964;42.910;23.792;2023-04-05T07:28:00;97296.84;;;7.71;68.21
57086;BME280;42964;42.910;23.792;2023-04-05T07:32:59;97297.84;;;8.11;74.09
57086;BME280;42964;42.910;23.792;2023-04-05T07:37:58;97304.72;;;8.60;65.07
57086;BME280;42964;42.910;23.792;2023-04-05T07:42:57;97314.22;;;8.78;64.55
57086;BME280;42964;42.910;23.792;2023-04-05T07:47:56;97310.72;;;9.08;63.85
57086;BME280;42964;42.910;23.792;2023-04-05T07:52:55;97318.41;;;9.42;70.04
57086;BME280;42964;42.910;23.792;2023-04-05T07:57:53;97267.50;;;9.34;63.07
57086;BME280;42964;42.910;23.792;2023-04-05T08:02:52;97315.75;;;9.63;61.67
57086;BME280;42964;42.910;23.792;2023-04-05T08:07:51;97321.03;;;9.28;56.82
57086;BME280;42964;42.910;23.792;2023-04-05T08:12:52;97320.16;;;9.26;58.81
57086;BME280;42964;42.910;23.792;2023-04-05T08:17:51;97314.19;;;8.85;55.24
57086;BME280;42964;42.910;23.792;2023-04-05T08:22:50;97328.88;;;8.74;60.19
57086;BME280;42964;42.910;23.792;2023-04-05T08:27:49;97330.53;;;9.13;60.36
57086;BME280;42964;42.910;23.792;2023-04-05T08:32:48;97322.63;;;9.64;58.76
57086;BME280;42964;42.910;23.792;2023-04-05T08:37:47;97320.75;;;9.97;55.63
57086;BME280;42964;42.910;23.792;2023-04-05T08:42:57;97332.69;;;10.21;57.60
57086;BME280;42964;42.910;23.792;2023-04-05T08:48:01;97324.84;;;10.35;55.91
57086;BME280;42964;42.910;23.792;2023-04-05T08:53:00;97324.00;;;10.31;55.03
57086;BME280;42964;42.910;23.792;2023-04-05T08:58:00;97321.56;;;10.10;56.24
57086;BME280;42964;42.910;23.792;2023-04-05T09:03:02;97339.66;;;10.17;56.39
57086;BME280;42964;42.910;23.792;2023-04-05T09:08:02;97341.56;;;9.83;53.13
57086;BME280;42964;42.910;23.792;2023-04-05T09:13:01;97346.06;;;9.35;54.36
57086;BME280;42964;42.910;23.792;2023-04-05T09:18:01;97347.63;;;9.77;59.34
57086;BME280;42964;42.910;23.792;2023-04-05T09:23:00;97351.69;;;10.31;58.06
57086;BME280;42964;42.910;23.792;2023-04-05T09:27:59;97349.78;;;10.51;56.59
57086;BME280;42964;42.910;23.792;2023-04-05T09:32:58;97351.41;;;10.68;58.14
57086;BME280;42964;42.910;23.792;2023-04-05T09:37:59;97356.25;;;11.11;56.27
57086;BME280;42964;42.910;23.792;2023-04-05T09:42:58;97355.19;;;11.30;54.58
57086;BME280;42964;42.910;23.792;2023-04-05T09:47:57;97350.31;;;10.99;53.90
57086;BME280;42964;42.910;23.792;2023-04-05T09:53:06;97355.31;;;11.18;54.03
57086;BME280;42964;42.910;23.792;2023-04-05T09:58:17;97342.31;;;11.21;51.29
57086;BME280;42964;42.910;23.792;2023-04-05T10:03:16;97336.50;;;11.73;50.01
57086;BME280;42964;42.910;23.792;2023-04-05T10:08:15;97334.53;;;11.94;48.61
57086;BME280;42964;42.910;23.792;2023-04-05T10:13:14;97323.03;;;11.43;50.55
57086;BME280;42964;42.910;23.792;2023-04-05T10:18:18;97335.44;;;11.89;46.50
57086;BME280;42964;42.910;23.792;2023-04-05T10:23:26;97333.84;;;11.81;45.53
57086;BME280;42964;42.910;23.792;2023-04-05T10:28:30;97324.34;;;11.75;48.58
57086;BME280;42964;42.910;23.792;2023-04-05T10:33:42;97321.75;;;12.40;49.09
57086;BME280;42964;42.910;23.792;2023-04-05T10:39:02;97322.41;;;12.55;47.51
57086;BME280;42964;42.910;23.792;2023-04-05T10:44:03;97312.81;;;12.57;46.38
57086;BME280;42964;42.910;23.792;2023-04-05T10:49:11;97313.94;;;12.94;44.33
57086;BME280;42964;42.910;23.792;2023-04-05T10:54:14;97308.34;;;12.65;44.22
57086;BME280;42964;42.910;23.792;2023-04-05T10:59:15;97300.56;;;12.63;41.85
57086;BME280;42964;42.910;23.792;2023-04-05T11:04:15;97306.63;;;12.05;43.20
57086;BME280;42964;42.910;23.792;2023-04-05T11:09:17;97313.41;;;12.15;44.88
57086;BME280;42964;42.910;23.792;2023-04-05T11:14:23;97316.84;;;12.19;45.18
57086;BME280;42964;42.910;23.792;2023-04-05T11:19:47;97315.47;;;11.95;47.54
57086;BME280;42964;42.910;23.792;2023-04-05T11:24:51;97316.44;;;11.86;45.84
57086;BME280;42964;42.910;23.792;2023-04-05T11:29:53;97303.53;;;11.78;48.89
57086;BME280;42964;42.910;23.792;2023-04-05T11:35:00;97320.50;;;12.04;47.67
57086;BME280;42964;42.910;23.792;2023-04-05T11:45:24;97331.13;;;11.88;46.60
57086;BME280;42964;42.910;23.792;2023-04-05T11:50:24;97324.84;;;12.05;45.28
57086;BME280;42964;42.910;23.792;2023-04-05T11:55:27;97291.78;;;10.61;43.08
57086;BME280;42964;42.910;23.792;2023-04-05T12:00:25;97329.78;;;10.67;46.42
57086;BME280;42964;42.910;23.792;2023-04-05T12:05:24;97326.34;;;10.65;46.91
57086;BME280;42964;42.910;23.792;2023-04-05T12:10:23;97299.56;;;10.61;49.44
57086;BME280;42964;42.910;23.792;2023-04-05T12:15:22;97323.69;;;10.70;48.90
57086;BME280;42964;42.910;23.792;2023-04-05T12:20:23;97325.38;;;10.77;47.67
57086;BME280;42964;42.910;23.792;2023-04-05T12:25:22;97329.28;;;10.17;48.91
57086;BME280;42964;42.910;23.792;2023-04-05T12:30:22;97332.78;;;10.07;46.87
57086;BME280;42964;42.910;23.792;2023-04-05T12:35:22;97331.22;;;9.78;48.13
57086;BME280;42964;42.910;23.792;2023-04-05T12:40:22;97329.59;;;9.48;48.05
57086;BME280;42964;42.910;23.792;2023-04-05T12:45:22;97296.88;;;9.21;50.36
57086;BME280;42964;42.910;23.792;2023-04-05T12:50:29;97329.56;;;9.62;50.57
57086;BME280;42964;42.910;23.792;2023-04-05T12:55:29;97331.28;;;9.66;48.43
57086;BME280;42964;42.910;23.792;2023-04-05T13:00:29;97327.81;;;9.70;49.04
57086;BME280;42964;42.910;23.792;2023-04-05T13:05:29;97308.78;;;9.77;47.10
57086;BME280;42964;42.910;23.792;2023-04-05T13:10:28;97329.38;;;9.99;48.54
57086;BME280;42964;42.910;23.792;2023-04-05T13:15:27;97329.38;;;10.05;47.24
57086;BME280;42964;42.910;23.792;2023-04-05T13:20:26;97296.66;;;9.80;47.15
57086;BME280;42964;42.910;23.792;2023-04-05T13:25:25;97325.25;;;9.61;47.35
57086;BME280;42964;42.910;23.792;2023-04-05T13:30:24;97342.59;;;9.18;48.06
57086;BME280;42964;42.910;23.792;2023-04-05T13:35:23;97319.34;;;8.15;51.92
57086;BME280;42964;42.910;23.792;2023-04-05T13:40:22;97339.13;;;8.03;54.42
57086;BME280;42964;42.910;23.792;2023-04-05T13:45:21;97343.47;;;8.01;55.43
57086;BME280;42964;42.910;23.792;2023-04-05T13:50:20;97346.84;;;7.82;57.43
57086;BME280;42964;42.910;23.792;2023-04-05T13:55:19;97350.25;;;7.64;59.07
57086;BME280;42964;42.910;23.792;2023-04-05T14:00:18;97352.63;;;7.38;60.61
57086;BME280;42964;42.910;23.792;2023-04-05T14:05:17;97271.47;;;6.76;60.75
57086;BME280;42964;42.910;23.792;2023-04-05T14:10:16;97350.84;;;7.23;61.57
57086;BME280;42964;42.910;23.792;2023-04-05T14:15:17;97353.41;;;7.15;61.96
57086;BME280;42964;42.910;23.792;2023-04-05T14:20:16;97360.75;;;6.65;61.39
57086;BME280;42964;42.910;23.792;2023-04-05T14:25:15;97341.66;;;6.38;62.38
57086;BME280;42964;42.910;23.792;2023-04-05T14:30:14;97364.22;;;6.67;62.67
57086;BME280;42964;42.910;23.792;2023-04-05T14:35:14;97366.00;;;6.74;61.43
57086;BME280;42964;42.910;23.792;2023-04-05T14:40:13;97372.81;;;6.67;60.51
57086;BME280;42964;42.910;23.792;2023-04-05T14:45:12;97375.38;;;6.67;60.83
57086;BME280;42964;42.910;23.792;2023-04-05T14:50:11;97380.44;;;6.52;61.81
57086;BME280;42964;42.910;23.792;2023-04-05T14:55:11;97389.81;;;6.47;60.80
57086;BME280;42964;42.910;23.792;2023-04-05T15:00:11;97331.31;;;6.36;60.44
57086;BME280;42964;42.910;23.792;2023-04-05T15:05:11;97373.63;;;6.60;60.09
57086;BME280;42964;42.910;23.792;2023-04-05T15:10:10;97378.34;;;7.15;59.43
57086;BME280;42964;42.910;23.792;2023-04-05T15:15:09;97380.13;;;7.25;53.64
57086;BME280;42964;42.910;23.792;2023-04-05T15:20:08;97384.56;;;7.49;52.86
57086;BME280;42964;42.910;23.792;2023-04-05T15:25:08;97390.69;;;7.68;51.56
57086;BME280;42964;42.910;23.792;2023-04-05T15:30:07;97387.19;;;7.58;50.82
57086;BME280;42964;42.910;23.792;2023-04-05T15:35:07;97380.25;;;7.50;50.52
57086;BME280;42964;42.910;23.792;2023-04-05T15:40:06;97395.66;;;7.37;49.77
57086;BME280;42964;42.910;23.792;2023-04-05T15:45:06;97398.34;;;7.51;49.64
57086;BME280;42964;42.910;23.792;2023-04-05T15:50:05;97399.22;;;7.49;50.27
57086;BME280;42964;42.910;23.792;2023-04-05T15:55:05;97402.53;;;7.34;49.05
57086;BME280;42964;42.910;23.792;2023-04-05T16:00:04;97411.09;;;7.28;49.72
57086;BME280;42964;42.910;23.792;2023-04-05T16:05:04;97405.94;;;7.28;50.21
57086;BME280;42964;42.910;23.792;2023-04-05T16:10:03;97405.03;;;7.21;49.50
57086;BME280;42964;42.910;23.792;2023-04-05T16:15:03;97404.06;;;7.04;49.71
57086;BME280;42964;42.910;23.792;2023-04-05T16:20:02;97420.31;;;6.94;49.19
57086;BME280;42964;42.910;23.792;2023-04-05T16:25:01;97422.56;;;6.55;49.95
57086;BME280;42964;42.910;23.792;2023-04-05T16:30:00;97429.25;;;6.36;48.92
57086;BME280;42964;42.910;23.792;2023-04-05T16:34:59;97430.84;;;6.24;50.82
57086;BME280;42964;42.910;23.792;2023-04-05T16:39:58;97436.63;;;6.03;50.67
57086;BME280;42964;42.910;23.792;2023-04-05T16:44:57;97431.25;;;5.87;50.59
57086;BME280;42964;42.910;23.792;2023-04-05T16:49:56;97422.34;;;5.61;51.08
57086;BME280;42964;42.910;23.792;2023-04-05T16:54:55;97429.81;;;5.42;51.26
57086;BME280;42964;42.910;23.792;2023-04-05T16:59:55;97437.28;;;5.24;51.82
57086;BME280;42964;42.910;23.792;2023-04-05T17:04:54;97451.50;;;5.00;51.94
57086;BME280;42964;42.910;23.792;2023-04-05T17:09:53;97452.09;;;4.87;52.18
57086;BME280;42964;42.910;23.792;2023-04-05T17:14:52;97455.94;;;4.60;52.14
57086;BME280;42964;42.910;23.792;2023-04-05T17:19:51;97460.09;;;4.54;53.03
57086;BME280;42964;42.910;23.792;2023-04-05T17:24:51;97463.25;;;4.39;53.01
57086;BME280;42964;42.910;23.792;2023-04-05T17:29:49;97470.59;;;4.20;53.19
57086;BME280;42964;42.910;23.792;2023-04-05T17:34:48;97473.75;;;4.07;53.23
57086;BME280;42964;42.910;23.792;2023-04-05T17:39:47;97444.06;;;3.77;53.91
57086;BME280;42964;42.910;23.792;2023-04-05T17:44:46;97485.41;;;3.91;54.59
57086;BME280;42964;42.910;23.792;2023-04-05T17:49:45;97485.13;;;3.77;54.31
57086;BME280;42964;42.910;23.792;2023-04-05T17:54:44;97491.09;;;3.76;54.10
57086;BME280;42964;42.910;23.792;2023-04-05T17:59:43;97433.84;;;3.38;54.23
57086;BME280;42964;42.910;23.792;2023-04-05T18:04:42;97491.50;;;3.55;54.77
57086;BME280;42964;42.910;23.792;2023-04-05T18:09:41;97501.00;;;3.61;54.53
57086;BME280;42964;42.910;23.792;2023-04-05T18:14:40;97507.00;;;3.60;54.95
57086;BME280;42964;42.910;23.792;2023-04-05T18:19:39;97501.66;;;3.51;55.11
57086;BME280;42964;42.910;23.792;2023-04-05T18:24:39;97510.09;;;3.47;55.08
57086;BME280;42964;42.910;23.792;2023-04-05T18:29:38;97507.69;;;3.53;54.98
57086;BME280;42964;42.910;23.792;2023-04-05T18:34:37;97519.59;;;3.51;55.27
57086;BME280;42964;42.910;23.792;2023-04-05T18:39:36;97489.41;;;3.39;55.56
57086;BME280;42964;42.910;23.792;2023-04-05T18:44:35;97519.81;;;3.60;55.22
57086;BME280;42964;42.910;23.792;2023-04-05T18:49:33;97523.25;;;3.60;55.23
57086;BME280;42964;42.910;23.792;2023-04-05T18:54:34;97512.13;;;3.60;55.50
57086;BME280;42964;42.910;23.792;2023-04-05T18:59:33;97520.94;;;3.73;55.18
57086;BME280;42964;42.910;23.792;2023-04-05T19:04:33;97531.41;;;3.80;55.37
57086;BME280;42964;42.910;23.792;2023-04-05T19:09:31;97520.66;;;3.98;54.30
57086;BME280;42964;42.910;23.792;2023-04-05T19:14:31;97514.78;;;4.04;54.59
57086;BME280;42964;42.910;23.792;2023-04-05T19:19:30;97508.81;;;4.05;54.66
57086;BME280;42964;42.910;23.792;2023-04-05T19:24:29;97503.72;;;4.06;54.82
57086;BME280;42964;42.910;23.792;2023-04-05T19:29:27;97512.41;;;4.13;54.34
57086;BME280;42964;42.910;23.792;2023-04-05T19:34:26;97519.16;;;4.08;54.67
57086;BME280;42964;42.910;23.792;2023-04-05T19:39:25;97515.88;;;4.15;54.52
57086;BME280;42964;42.910;23.792;2023-04-05T19:44:47;97514.25;;;4.20;54.73
57086;BME280;42964;42.910;23.792;2023-04-05T19:49:48;97513.56;;;4.27;55.00
57086;BME280;42964;42.910;23.792;2023-04-05T19:54:48;97499.19;;;4.37;54.73
57086;BME280;42964;42.910;23.792;2023-04-05T19:59:47;97501.69;;;4.34;53.95
57086;BME280;42964;42.910;23.792;2023-04-05T20:04:46;97506.78;;;4.33;54.46
57086;BME280;42964;42.910;23.792;2023-04-05T20:09:46;97498.47;;;4.44;55.04
57086;BME280;42964;42.910;23.792;2023-04-05T20:14:45;97501.06;;;4.46;55.04
57086;BME280;42964;42.910;23.792;2023-04-05T20:19:56;97489.88;;;4.44;54.72
57086;BME280;42964;42.910;23.792;2023-04-05T20:24:55;97495.75;;;4.37;54.74
57086;BME280;42964;42.910;23.792;2023-04-05T20:29:54;97492.09;;;4.25;55.10
57086;BME280;42964;42.910;23.792;2023-04-05T20:34:53;97504.72;;;4.15;55.02
57086;BME280;42964;42.910;23.792;2023-04-05T20:39:52;97502.84;;;4.06;55.30
57086;BME280;42964;42.910;23.792;2023-04-05T20:44:52;97506.88;;;3.95;55.17
57086;BME280;42964;42.910;23.792;2023-04-05T20:49:51;97502.91;;;3.70;55.44
57086;BME280;42964;42.910;23.792;2023-04-05T20:54:50;97502.72;;;3.59;55.75
57086;BME280;42964;42.910;23.792;2023-04-05T20:59:49;97495.63;;;3.49;56.09
57086;BME280;42964;42.910;23.792;2023-04-05T21:04:48;97474.66;;;3.29;56.29
57086;BME280;42964;42.910;23.792;2023-04-05T21:09:48;97439.72;;;2.97;56.70
57086;BME280;42964;42.910;23.792;2023-04-05T21:14:47;97489.59;;;3.10;56.78
57086;BME280;42964;42.910;23.792;2023-04-05T21:19:46;97492.75;;;3.00;57.14
57086;BME280;42964;42.910;23.792;2023-04-05T21:24:45;97460.56;;;2.76;57.34
57086;BME280;42964;42.910;23.792;2023-04-05T21:29:44;97485.41;;;2.79;57.64
57086;BME280;42964;42.910;23.792;2023-04-05T21:34:43;97500.81;;;2.80;58.28
57086;BME280;42964;42.910;23.792;2023-04-05T21:39:42;97486.75;;;2.65;58.01
57086;BME280;42964;42.910;23.792;2023-04-05T21:44:41;97497.78;;;2.61;58.48
57086;BME280;42964;42.910;23.792;2023-04-05T21:49:40;97496.75;;;2.55;58.65
57086;BME280;42964;42.910;23.792;2023-04-05T21:54:39;97500.94;;;2.52;59.15
57086;BME280;42964;42.910;23.792;2023-04-05T21:59:38;97447.84;;;2.13;59.89
57086;BME280;42964;42.910;23.792;2023-04-05T22:04:37;97489.28;;;2.31;59.51
57086;BME280;42964;42.910;23.792;2023-04-05T22:09:37;97480.81;;;2.34;59.87
57086;BME280;42964;42.910;23.792;2023-04-05T22:14:36;97484.91;;;2.27;60.69
57086;BME280;42964;42.910;23.792;2023-04-05T22:19:35;97487.28;;;2.20;60.70
57086;BME280;42964;42.910;23.792;2023-04-05T22:24:34;97484.63;;;2.16;61.27
57086;BME280;42964;42.910;23.792;2023-04-05T22:29:33;97493.97;;;2.14;61.07
57086;BME280;42964;42.910;23.792;2023-04-05T22:34:32;97450.28;;;1.78;60.52
57086;BME280;42964;42.910;23.792;2023-04-05T22:39:31;97479.88;;;1.99;61.50
57086;BME280;42964;42.910;23.792;2023-04-05T22:44:30;97481.63;;;2.01;60.80
57086;BME280;42964;42.910;23.792;2023-04-05T22:49:29;97476.59;;;2.04;60.42
57086;BME280;42964;42.910;23.792;2023-04-05T22:54:28;97476.53;;;2.01;60.87
57086;BME280;42964;42.910;23.792;2023-04-05T22:59:27;97476.44;;;1.98;60.59
57086;BME280;42964;42.910;23.792;2023-04-05T23:04:26;97471.31;;;1.98;60.88
57086;BME280;42964;42.910;23.792;2023-04-05T23:09:26;97466.22;;;2.00;60.61
57086;BME280;42964;42.910;23.792;2023-04-05T23:14:25;97465.28;;;1.96;60.64
57086;BME280;42964;42.910;23.792;2023-04-05T23:19:24;97454.28;;;1.99;60.49
57086;BME280;42964;42.910;23.792;2023-04-05T23:24:23;97449.88;;;1.94;60.32
57086;BME280;42964;42.910;23.792;2023-04-05T23:29:22;97456.69;;;1.94;60.59
57086;BME280;42964;42.910;23.792;2023-04-05T23:34:23;97440.44;;;1.92;61.00
57086;BME280;42964;42.910;23.792;2023-04-05T23:39:22;97443.69;;;1.86;60.84
57086;BME280;42964;42.910;23.792;2023-04-05T23:44:21;97430.25;;;1.93;60.33
57086;BME280;42964;42.910;23.792;2023-04-05T23:49:20;97357.47;;;1.52;60.33
57086;BME280;42964;42.910;23.792;2023-04-05T23:54:20;97423.25;;;1.88;60.83
57086;BME280;42964;42.910;23.792;2023-04-05T23:59:19;97425.94;;;1.92;60.58
